sensor_id;sensor_type;location;lat;lon;timestamp;pressure;altitude;pressure_sealevel;temperature;humidity
9277;BME280;4676;42.678;23.244;2022-09-21T00:01:05;94224.50;;;9.19;100.00
9277;BME280;4676;42.678;23.244;2022-09-21T00:03:32;94219.88;;;9.32;100.00
9277;BME280;4676;42.678;23.244;2022-09-21T00:06:03;94220.13;;;9.24;100.00
9277;BME280;4676;42.678;23.244;2022-09-21T00:08:30;94221.00;;;9.23;100.00
9277;BME280;4676;42.678;23.244;2022-09-21T00:10:58;94217.16;;;9.12;100.00
9277;BME280;4676;42.678;23.244;2022-09-21T00:13:25;94217.22;;;9.10;100.00
9277;BME280;4676;42.678;23.244;2022-09-21T00:15:53;94218.97;;;9.08;100.00
9277;BME280;4676;42.678;23.244;2022-09-21T00:18:20;94220.41;;;9.15;100.00
9277;BME280;4676;42.678;23.244;2022-09-21T00:20:47;94225.66;;;9.11;100.00
9277;BME280;4676;42.678;23.244;2022-09-21T00:23:14;94219.88;;;9.07;100.00
9277;BME280;4676;42.678;23.244;2022-09-21T00:25:41;94216.13;;;8.92;100.00
9277;BME280;4676;42.678;23.244;2022-09-21T00:28:09;94217.72;;;8.95;100.00
9277;BME280;4676;42.678;23.244;2022-09-21T00:30:36;94204.59;;;8.84;100.00
9277;BME280;4676;42.678;23.244;2022-09-21T00:33:03;94213.50;;;8.95;100.00
9277;BME280;4676;42.678;23.244;2022-09-21T00:35:30;94216.88;;;8.94;100.00
9277;BME280;4676;42.678;23.244;2022-09-21T00:37:59;94211.31;;;9.11;100.00
9277;BME280;4676;42.678;23.244;2022-09-21T00:40:26;94209.91;;;9.01;100.00
9277;BME280;4676;42.678;23.244;2022-09-21T00:42:53;94214.19;;;9.00;100.00
9277;BME280;4676;42.678;23.244;2022-09-21T00:45:21;94215.09;;;8.98;100.00
9277;BME280;4676;42.678;23.244;2022-09-21T00:47:50;94220.75;;;9.04;100.00
9277;BME280;4676;42.678;23.244;2022-09-21T00:50:19;94216.75;;;8.99;100.00
9277;BME280;4676;42.678;23.244;2022-09-21T00:52:51;94214.84;;;9.06;100.00
9277;BME280;4676;42.678;23.244;2022-09-21T00:55:22;94158.06;;;8.65;100.00
9277;BME280;4676;42.678;23.244;2022-09-21T00:57:53;94208.53;;;8.92;100.00
9277;BME280;4676;42.678;23.244;2022-09-21T01:00:23;94206.38;;;9.07;100.00
9277;BME280;4676;42.678;23.244;2022-09-21T01:02:50;94206.66;;;8.97;100.00
9277;BME280;4676;42.678;23.244;2022-09-21T01:05:17;94216.22;;;8.89;100.00
9277;BME280;4676;42.678;23.244;2022-09-21T01:07:45;94216.31;;;8.86;100.00
9277;BME280;4676;42.678;23.244;2022-09-21T01:10:15;94213.09;;;8.81;100.00
9277;BME280;4676;42.678;23.244;2022-09-21T01:12:58;94210.78;;;8.75;100.00
9277;BME280;4676;42.678;23.244;2022-09-21T01:15:36;94207.28;;;8.79;100.00
9277;BME280;4676;42.678;23.244;2022-09-21T01:18:11;94210.94;;;8.69;100.00
9277;BME280;4676;42.678;23.244;2022-09-21T01:21:16;94212.91;;;8.61;100.00
9277;BME280;4676;42.678;23.244;2022-09-21T01:29:52;94199.66;;;8.53;100.00
9277;BME280;4676;42.678;23.244;2022-09-21T01:32:22;94198.91;;;8.51;100.00
9277;BME280;4676;42.678;23.244;2022-09-21T01:34:55;94200.81;;;8.43;100.00
9277;BME280;4676;42.678;23.244;2022-09-21T01:37:30;94197.59;;;8.38;100.00
9277;BME280;4676;42.678;23.244;2022-09-21T01:40:02;94185.91;;;8.35;100.00
9277;BME280;4676;42.678;23.244;2022-09-21T01:42:32;94190.22;;;8.32;100.00
9277;BME280;4676;42.678;23.244;2022-09-21T01:45:03;94187.94;;;8.23;100.00
9277;BME280;4676;42.678;23.244;2022-09-21T01:47:33;94194.06;;;8.14;100.00
9277;BME280;4676;42.678;23.244;2022-09-21T01:50:05;94188.91;;;8.19;100.00
9277;BME280;4676;42.678;23.244;2022-09-21T01:52:37;94191.59;;;8.13;100.00
9277;BME280;4676;42.678;23.244;2022-09-21T01:55:09;94185.72;;;8.12;100.00
9277;BME280;4676;42.678;23.244;2022-09-21T01:57:42;94180.84;;;8.06;100.00
9277;BME280;4676;42.678;23.244;2022-09-21T02:00:14;94184.91;;;8.12;100.00
9277;BME280;4676;42.678;23.244;2022-09-21T02:02:46;94187.66;;;8.02;100.00
9277;BME280;4676;42.678;23.244;2022-09-21T02:05:17;94184.66;;;7.91;100.00
9277;BME280;4676;42.678;23.244;2022-09-21T02:07:45;94184.25;;;7.76;100.00
9277;BME280;4676;42.678;23.244;2022-09-21T02:10:16;94186.56;;;7.83;100.00
9277;BME280;4676;42.678;23.244;2022-09-21T02:12:45;94186.38;;;7.89;100.00
9277;BME280;4676;42.678;23.244;2022-09-21T02:15:13;94186.25;;;7.94;100.00
9277;BME280;4676;42.678;23.244;2022-09-21T02:17:49;94188.66;;;7.98;100.00
9277;BME280;4676;42.678;23.244;2022-09-21T02:20:22;94193.69;;;7.98;100.00
9277;BME280;4676;42.678;23.244;2022-09-21T02:22:58;94197.81;;;8.01;100.00
9277;BME280;4676;42.678;23.244;2022-09-21T02:25:37;94192.78;;;8.01;100.00
9277;BME280;4676;42.678;23.244;2022-09-21T02:28:09;94205.31;;;8.04;100.00
9277;BME280;4676;42.678;23.244;2022-09-21T02:30:46;94196.66;;;8.13;100.00
9277;BME280;4676;42.678;23.244;2022-09-21T02:33:18;94202.38;;;8.18;100.00
9277;BME280;4676;42.678;23.244;2022-09-21T02:35:54;94194.03;;;8.16;100.00
9277;BME280;4676;42.678;23.244;2022-09-21T02:38:34;94205.50;;;8.26;100.00
9277;BME280;4676;42.678;23.244;2022-09-21T02:41:04;94194.78;;;8.19;100.00
9277;BME280;4676;42.678;23.244;2022-09-21T02:43:36;94188.47;;;8.04;100.00
9277;BME280;4676;42.678;23.244;2022-09-21T02:46:10;94200.88;;;8.12;100.00
9277;BME280;4676;42.678;23.244;2022-09-21T02:48:44;94197.72;;;8.04;100.00
9277;BME280;4676;42.678;23.244;2022-09-21T02:51:15;94196.72;;;8.10;100.00
9277;BME280;4676;42.678;23.244;2022-09-21T02:53:43;94201.75;;;8.10;100.00
9277;BME280;4676;42.678;23.244;2022-09-21T02:56:12;94195.31;;;8.01;100.00
9277;BME280;4676;42.678;23.244;2022-09-21T02:58:44;94193.72;;;7.97;100.00
9277;BME280;4676;42.678;23.244;2022-09-21T03:01:14;94204.09;;;7.88;100.00
9277;BME280;4676;42.678;23.244;2022-09-21T03:03:42;94204.00;;;7.91;100.00
9277;BME280;4676;42.678;23.244;2022-09-21T03:06:09;94197.22;;;7.93;100.00
9277;BME280;4676;42.678;23.244;2022-09-21T03:08:36;94208.44;;;7.83;100.00
9277;BME280;4676;42.678;23.244;2022-09-21T03:11:03;94211.59;;;7.89;100.00
9277;BME280;4676;42.678;23.244;2022-09-21T03:13:30;94204.53;;;7.71;100.00
9277;BME280;4676;42.678;23.244;2022-09-21T03:15:58;94206.13;;;7.75;100.00
9277;BME280;4676;42.678;23.244;2022-09-21T03:18:27;94211.16;;;7.75;100.00
9277;BME280;4676;42.678;23.244;2022-09-21T03:20:53;94195.47;;;7.64;100.00
9277;BME280;4676;42.678;23.244;2022-09-21T03:23:20;94209.09;;;7.59;100.00
9277;BME280;4676;42.678;23.244;2022-09-21T03:25:47;94208.84;;;7.68;100.00
9277;BME280;4676;42.678;23.244;2022-09-21T03:28:14;94208.75;;;7.71;100.00
9277;BME280;4676;42.678;23.244;2022-09-21T03:30:41;94212.09;;;7.71;100.00
9277;BME280;4676;42.678;23.244;2022-09-21T03:33:09;94216.38;;;7.69;100.00
9277;BME280;4676;42.678;23.244;2022-09-21T03:35:38;94207.72;;;7.78;100.00
9277;BME280;4676;42.678;23.244;2022-09-21T03:38:05;94210.94;;;7.83;100.00
9277;BME280;4676;42.678;23.244;2022-09-21T03:40:33;94211.72;;;7.85;100.00
9277;BME280;4676;42.678;23.244;2022-09-21T03:42:59;94214.94;;;7.91;100.00
9277;BME280;4676;42.678;23.244;2022-09-21T03:45:26;94218.03;;;7.99;100.00
9277;BME280;4676;42.678;23.244;2022-09-21T03:47:54;94215.56;;;7.98;100.00
9277;BME280;4676;42.678;23.244;2022-09-21T03:50:22;94207.09;;;8.00;100.00
9277;BME280;4676;42.678;23.244;2022-09-21T03:52:50;94221.47;;;7.98;100.00
9277;BME280;4676;42.678;23.244;2022-09-21T03:55:17;94222.31;;;7.97;100.00
9277;BME280;4676;42.678;23.244;2022-09-21T03:57:44;94220.63;;;7.98;100.00
9277;BME280;4676;42.678;23.244;2022-09-21T04:00:11;94225.75;;;7.95;100.00
9277;BME280;4676;42.678;23.244;2022-09-21T04:02:39;94208.22;;;7.90;100.00
9277;BME280;4676;42.678;23.244;2022-09-21T04:05:06;94222.63;;;7.87;100.00
9277;BME280;4676;42.678;23.244;2022-09-21T04:07:33;94224.28;;;7.88;100.00
9277;BME280;4676;42.678;23.244;2022-09-21T04:10:03;94209.16;;;7.86;100.00
9277;BME280;4676;42.678;23.244;2022-09-21T04:12:30;94222.63;;;7.87;100.00
9277;BME280;4676;42.678;23.244;2022-09-21T04:14:57;94226.00;;;7.86;100.00
9277;BME280;4676;42.678;23.244;2022-09-21T04:17:24;94221.69;;;7.89;100.00
9277;BME280;4676;42.678;23.244;2022-09-21T04:19:51;94233.38;;;7.93;100.00
9277;BME280;4676;42.678;23.244;2022-09-21T04:22:18;94224.88;;;7.96;100.00
9277;BME280;4676;42.678;23.244;2022-09-21T04:24:44;94229.81;;;7.99;100.00
9277;BME280;4676;42.678;23.244;2022-09-21T04:27:13;94220.66;;;7.96;100.00
9277;BME280;4676;42.678;23.244;2022-09-21T04:29:39;94225.63;;;7.99;100.00
9277;BME280;4676;42.678;23.244;2022-09-21T04:32:06;94209.81;;;7.93;100.00
9277;BME280;4676;42.678;23.244;2022-09-21T04:34:33;94217.09;;;8.03;100.00
9277;BME280;4676;42.678;23.244;2022-09-21T04:37:00;94226.31;;;8.04;100.00
9277;BME280;4676;42.678;23.244;2022-09-21T04:39:27;94225.00;;;8.21;100.00
9277;BME280;4676;42.678;23.244;2022-09-21T04:41:54;94224.91;;;8.24;100.00
9277;BME280;4676;42.678;23.244;2022-09-21T04:44:22;94226.16;;;8.40;100.00
9277;BME280;4676;42.678;23.244;2022-09-21T04:46:49;94218.50;;;8.43;100.00
9277;BME280;4676;42.678;23.244;2022-09-21T04:49:16;94225.56;;;8.60;100.00
9277;BME280;4676;42.678;23.244;2022-09-21T04:51:42;94219.34;;;8.70;100.00
9277;BME280;4676;42.678;23.244;2022-09-21T04:54:09;94223.44;;;8.74;100.00
9277;BME280;4676;42.678;23.244;2022-09-21T04:56:36;94224.16;;;8.77;100.00
9277;BME280;4676;42.678;23.244;2022-09-21T04:59:03;94223.19;;;8.81;100.00
9277;BME280;4676;42.678;23.244;2022-09-21T05:01:31;94228.28;;;8.80;100.00
9277;BME280;4676;42.678;23.244;2022-09-21T05:03:58;94229.84;;;8.84;100.00
9277;BME280;4676;42.678;23.244;2022-09-21T05:06:26;94231.28;;;8.92;100.00
9277;BME280;4676;42.678;23.244;2022-09-21T05:08:53;94237.72;;;9.01;100.00
9277;BME280;4676;42.678;23.244;2022-09-21T05:11:37;94223.28;;;9.04;100.00
9277;BME280;4676;42.678;23.244;2022-09-21T05:14:04;94235.66;;;9.14;100.00
9277;BME280;4676;42.678;23.244;2022-09-21T05:16:33;94233.78;;;9.19;100.00
9277;BME280;4676;42.678;23.244;2022-09-21T05:18:59;94228.44;;;9.28;100.00
9277;BME280;4676;42.678;23.244;2022-09-21T05:21:26;94224.03;;;9.33;100.00
9277;BME280;4676;42.678;23.244;2022-09-21T05:23:53;94229.69;;;9.41;100.00
9277;BME280;4676;42.678;23.244;2022-09-21T05:26:21;94234.50;;;9.48;100.00
9277;BME280;4676;42.678;23.244;2022-09-21T05:28:49;94228.13;;;9.62;100.00
9277;BME280;4676;42.678;23.244;2022-09-21T05:31:30;94227.66;;;9.75;100.00
9277;BME280;4676;42.678;23.244;2022-09-21T05:34:04;94222.47;;;9.78;100.00
9277;BME280;4676;42.678;23.244;2022-09-21T05:36:43;94232.78;;;9.97;100.00
9277;BME280;4676;42.678;23.244;2022-09-21T05:39:13;94237.59;;;10.04;100.00
9277;BME280;4676;42.678;23.244;2022-09-21T05:41:41;94226.41;;;10.10;100.00
9277;BME280;4676;42.678;23.244;2022-09-21T05:44:09;94236.19;;;10.21;100.00
9277;BME280;4676;42.678;23.244;2022-09-21T05:46:39;94236.50;;;10.35;100.00
9277;BME280;4676;42.678;23.244;2022-09-21T05:49:16;94229.41;;;10.44;100.00
9277;BME280;4676;42.678;23.244;2022-09-21T05:51:54;94229.00;;;10.55;100.00
9277;BME280;4676;42.678;23.244;2022-09-21T05:54:30;94226.88;;;10.66;100.00
9277;BME280;4676;42.678;23.244;2022-09-21T05:57:09;94216.97;;;10.60;100.00
9277;BME280;4676;42.678;23.244;2022-09-21T05:59:47;94228.34;;;10.72;100.00
9277;BME280;4676;42.678;23.244;2022-09-21T06:02:25;94236.78;;;10.72;100.00
9277;BME280;4676;42.678;23.244;2022-09-21T06:04:55;94230.19;;;10.68;100.00
9277;BME280;4676;42.678;23.244;2022-09-21T06:07:23;94232.72;;;10.68;100.00
9277;BME280;4676;42.678;23.244;2022-09-21T06:09:50;94234.59;;;10.63;100.00
9277;BME280;4676;42.678;23.244;2022-09-21T06:12:16;94237.50;;;10.76;100.00
9277;BME280;4676;42.678;23.244;2022-09-21T06:14:43;94231.53;;;10.77;100.00
9277;BME280;4676;42.678;23.244;2022-09-21T06:17:10;94242.22;;;10.85;100.00
9277;BME280;4676;42.678;23.244;2022-09-21T06:19:37;94236.19;;;10.87;100.00
9277;BME280;4676;42.678;23.244;2022-09-21T06:22:05;94241.91;;;10.92;100.00
9277;BME280;4676;42.678;23.244;2022-09-21T06:24:32;94246.63;;;11.01;100.00
9277;BME280;4676;42.678;23.244;2022-09-21T06:26:58;94246.19;;;11.12;100.00
9277;BME280;4676;42.678;23.244;2022-09-21T06:29:25;94253.91;;;11.31;100.00
9277;BME280;4676;42.678;23.244;2022-09-21T06:31:52;94251.50;;;11.28;100.00
9277;BME280;4676;42.678;23.244;2022-09-21T06:34:18;94255.28;;;11.18;100.00
9277;BME280;4676;42.678;23.244;2022-09-21T06:36:45;94256.50;;;11.29;100.00
9277;BME280;4676;42.678;23.244;2022-09-21T06:39:13;94261.50;;;11.31;100.00
9277;BME280;4676;42.678;23.244;2022-09-21T06:41:40;94260.28;;;11.19;100.00
9277;BME280;4676;42.678;23.244;2022-09-21T06:44:07;94253.19;;;11.27;100.00
9277;BME280;4676;42.678;23.244;2022-09-21T06:46:33;94266.28;;;11.38;100.00
9277;BME280;4676;42.678;23.244;2022-09-21T06:51:41;94272.69;;;11.47;100.00
9277;BME280;4676;42.678;23.244;2022-09-21T06:54:08;94271.34;;;11.38;100.00
9277;BME280;4676;42.678;23.244;2022-09-21T06:56:37;94275.91;;;11.50;100.00
9277;BME280;4676;42.678;23.244;2022-09-21T06:59:03;94278.16;;;11.58;100.00
9277;BME280;4676;42.678;23.244;2022-09-21T07:01:30;94272.44;;;11.75;100.00
9277;BME280;4676;42.678;23.244;2022-09-21T07:03:57;94274.25;;;11.91;100.00
9277;BME280;4676;42.678;23.244;2022-09-21T07:06:24;94273.69;;;11.85;97.54
9277;BME280;4676;42.678;23.244;2022-09-21T07:08:50;94276.94;;;11.88;100.00
9277;BME280;4676;42.678;23.244;2022-09-21T07:11:17;94270.84;;;11.92;100.00
9277;BME280;4676;42.678;23.244;2022-09-21T07:13:46;94279.25;;;11.93;99.19
9277;BME280;4676;42.678;23.244;2022-09-21T07:16:13;94283.19;;;12.00;97.67
9277;BME280;4676;42.678;23.244;2022-09-21T07:18:41;94277.81;;;11.87;97.73
9277;BME280;4676;42.678;23.244;2022-09-21T07:21:09;94279.72;;;11.82;98.24
9277;BME280;4676;42.678;23.244;2022-09-21T07:23:36;94284.31;;;11.74;98.63
9277;BME280;4676;42.678;23.244;2022-09-21T07:26:04;94256.28;;;11.56;98.49
9277;BME280;4676;42.678;23.244;2022-09-21T07:28:32;94283.63;;;11.69;100.00
9277;BME280;4676;42.678;23.244;2022-09-21T07:31:05;94286.59;;;11.59;100.00
9277;BME280;4676;42.678;23.244;2022-09-21T07:33:32;94295.22;;;11.54;100.00
9277;BME280;4676;42.678;23.244;2022-09-21T07:36:00;94269.53;;;11.42;100.00
9277;BME280;4676;42.678;23.244;2022-09-21T07:38:28;94277.53;;;11.33;98.72
9277;BME280;4676;42.678;23.244;2022-09-21T07:40:55;94282.13;;;11.43;98.90
9277;BME280;4676;42.678;23.244;2022-09-21T07:43:22;94279.41;;;11.48;100.00
9277;BME280;4676;42.678;23.244;2022-09-21T07:45:52;94286.06;;;11.50;97.03
9277;BME280;4676;42.678;23.244;2022-09-21T07:48:21;94294.47;;;11.52;99.54
9277;BME280;4676;42.678;23.244;2022-09-21T07:50:48;94284.75;;;11.62;98.32
9277;BME280;4676;42.678;23.244;2022-09-21T07:53:15;94279.28;;;11.73;100.00
9277;BME280;4676;42.678;23.244;2022-09-21T07:55:42;94286.06;;;11.92;100.00
9277;BME280;4676;42.678;23.244;2022-09-21T07:58:09;94282.56;;;11.95;96.72
9277;BME280;4676;42.678;23.244;2022-09-21T08:00:53;94282.38;;;11.99;95.88
9277;BME280;4676;42.678;23.244;2022-09-21T08:03:21;94283.97;;;12.02;94.62
9277;BME280;4676;42.678;23.244;2022-09-21T08:05:48;94288.16;;;12.03;93.72
9277;BME280;4676;42.678;23.244;2022-09-21T08:08:15;94283.69;;;12.08;93.21
9277;BME280;4676;42.678;23.244;2022-09-21T08:10:42;94282.25;;;12.02;90.73
9277;BME280;4676;42.678;23.244;2022-09-21T08:13:08;94280.19;;;12.11;92.71
9277;BME280;4676;42.678;23.244;2022-09-21T08:15:35;94280.66;;;12.20;94.97
9277;BME280;4676;42.678;23.244;2022-09-21T08:18:03;94284.06;;;12.19;91.86
9277;BME280;4676;42.678;23.244;2022-09-21T08:20:32;94285.44;;;12.26;90.75
9277;BME280;4676;42.678;23.244;2022-09-21T08:22:59;94274.88;;;12.35;89.48
9277;BME280;4676;42.678;23.244;2022-09-21T08:25:26;94264.28;;;12.26;88.49
9277;BME280;4676;42.678;23.244;2022-09-21T08:27:56;94273.56;;;12.45;88.19
9277;BME280;4676;42.678;23.244;2022-09-21T08:30:25;94270.09;;;12.48;84.30
9277;BME280;4676;42.678;23.244;2022-09-21T08:32:53;94260.84;;;12.45;86.04
9277;BME280;4676;42.678;23.244;2022-09-21T08:35:20;94257.97;;;12.53;86.36
9277;BME280;4676;42.678;23.244;2022-09-21T08:37:52;94265.41;;;12.58;84.67
9277;BME280;4676;42.678;23.244;2022-09-21T08:40:19;94257.28;;;12.49;83.79
9277;BME280;4676;42.678;23.244;2022-09-21T08:42:54;94254.75;;;12.49;83.93
9277;BME280;4676;42.678;23.244;2022-09-21T08:45:24;94264.09;;;12.68;91.06
9277;BME280;4676;42.678;23.244;2022-09-21T08:47:56;94255.84;;;12.81;87.73
9277;BME280;4676;42.678;23.244;2022-09-21T08:50:31;94260.66;;;12.87;81.97
9277;BME280;4676;42.678;23.244;2022-09-21T08:53:04;94262.94;;;12.75;80.63
9277;BME280;4676;42.678;23.244;2022-09-21T08:55:32;94248.28;;;12.80;84.99
9277;BME280;4676;42.678;23.244;2022-09-21T08:57:59;94251.38;;;12.86;84.10
9277;BME280;4676;42.678;23.244;2022-09-21T09:00:28;94236.59;;;12.94;88.58
9277;BME280;4676;42.678;23.244;2022-09-21T09:03:18;94247.84;;;13.08;80.23
9277;BME280;4676;42.678;23.244;2022-09-21T09:05:52;94242.88;;;13.05;80.40
9277;BME280;4676;42.678;23.244;2022-09-21T09:11:33;94240.50;;;13.01;75.92
9277;BME280;4676;42.678;23.244;2022-09-21T09:14:26;94236.88;;;13.06;76.21
9277;BME280;4676;42.678;23.244;2022-09-21T09:17:06;94241.66;;;13.13;78.40
9277;BME280;4676;42.678;23.244;2022-09-21T09:19:42;94235.66;;;13.14;76.03
9277;BME280;4676;42.678;23.244;2022-09-21T09:22:14;94236.66;;;13.12;74.77
9277;BME280;4676;42.678;23.244;2022-09-21T09:24:46;94234.16;;;12.91;72.94
9277;BME280;4676;42.678;23.244;2022-09-21T09:27:18;94228.97;;;12.94;74.28
9277;BME280;4676;42.678;23.244;2022-09-21T09:29:52;94236.09;;;13.05;73.68
9277;BME280;4676;42.678;23.244;2022-09-21T09:32:27;94227.63;;;13.05;71.61
9277;BME280;4676;42.678;23.244;2022-09-21T09:35:00;94217.59;;;13.01;70.71
9277;BME280;4676;42.678;23.244;2022-09-21T09:37:30;94220.25;;;13.17;73.82
9277;BME280;4676;42.678;23.244;2022-09-21T09:40:01;94215.94;;;13.19;71.45
9277;BME280;4676;42.678;23.244;2022-09-21T09:42:49;94217.50;;;13.22;71.13
9277;BME280;4676;42.678;23.244;2022-09-21T09:45:32;94215.84;;;13.21;75.46
9277;BME280;4676;42.678;23.244;2022-09-21T09:48:37;94214.84;;;13.23;73.38
9277;BME280;4676;42.678;23.244;2022-09-21T09:51:10;94207.22;;;13.23;75.69
9277;BME280;4676;42.678;23.244;2022-09-21T09:53:38;94210.22;;;13.31;72.56
9277;BME280;4676;42.678;23.244;2022-09-21T09:56:08;94204.72;;;13.40;71.95
9277;BME280;4676;42.678;23.244;2022-09-21T09:58:41;94206.94;;;13.46;71.50
9277;BME280;4676;42.678;23.244;2022-09-21T10:04:13;94197.59;;;13.30;69.36
9277;BME280;4676;42.678;23.244;2022-09-21T10:06:40;94192.75;;;13.07;68.38
9277;BME280;4676;42.678;23.244;2022-09-21T10:09:26;94189.72;;;12.98;67.28
9277;BME280;4676;42.678;23.244;2022-09-21T10:11:57;94198.28;;;12.97;70.27
9277;BME280;4676;42.678;23.244;2022-09-21T10:14:27;94194.78;;;12.81;68.15
9277;BME280;4676;42.678;23.244;2022-09-21T10:16:55;94189.28;;;12.73;69.11
9277;BME280;4676;42.678;23.244;2022-09-21T10:19:26;94187.84;;;12.85;70.32
9277;BME280;4676;42.678;23.244;2022-09-21T10:21:58;94179.13;;;13.08;72.24
9277;BME280;4676;42.678;23.244;2022-09-21T10:24:28;94183.22;;;13.29;66.34
9277;BME280;4676;42.678;23.244;2022-09-21T10:27:03;94192.84;;;13.57;68.16
9277;BME280;4676;42.678;23.244;2022-09-21T10:29:37;94189.09;;;13.64;58.89
9277;BME280;4676;42.678;23.244;2022-09-21T10:32:17;94178.88;;;13.81;60.40
9277;BME280;4676;42.678;23.244;2022-09-21T10:37:43;94166.03;;;14.15;61.81
9277;BME280;4676;42.678;23.244;2022-09-21T10:40:27;94163.56;;;14.29;62.05
9277;BME280;4676;42.678;23.244;2022-09-21T10:42:58;94154.03;;;14.33;61.08
9277;BME280;4676;42.678;23.244;2022-09-21T10:45:26;94147.78;;;14.07;61.00
9277;BME280;4676;42.678;23.244;2022-09-21T10:47:56;94162.38;;;13.88;59.60
9277;BME280;4676;42.678;23.244;2022-09-21T10:50:26;94172.69;;;13.69;60.85
9277;BME280;4676;42.678;23.244;2022-09-21T10:52:57;94166.56;;;13.56;60.79
9277;BME280;4676;42.678;23.244;2022-09-21T10:55:27;94173.03;;;13.46;61.95
9277;BME280;4676;42.678;23.244;2022-09-21T10:57:56;94167.56;;;13.36;61.60
9277;BME280;4676;42.678;23.244;2022-09-21T11:00:41;94163.53;;;13.32;61.02
9277;BME280;4676;42.678;23.244;2022-09-21T11:03:38;94160.75;;;13.54;61.31
9277;BME280;4676;42.678;23.244;2022-09-21T11:06:12;94146.25;;;13.72;62.74
9277;BME280;4676;42.678;23.244;2022-09-21T11:08:45;94154.28;;;13.80;59.97
9277;BME280;4676;42.678;23.244;2022-09-21T11:11:33;94142.16;;;13.85;58.36
9277;BME280;4676;42.678;23.244;2022-09-21T11:14:11;94140.88;;;14.09;61.68
9277;BME280;4676;42.678;23.244;2022-09-21T11:16:45;94146.13;;;14.22;56.18
9277;BME280;4676;42.678;23.244;2022-09-21T11:19:19;94144.69;;;14.18;55.46
9277;BME280;4676;42.678;23.244;2022-09-21T11:21:54;94154.00;;;14.34;55.71
9277;BME280;4676;42.678;23.244;2022-09-21T11:24:30;94143.53;;;14.23;56.32
9277;BME280;4676;42.678;23.244;2022-09-21T11:27:05;94141.78;;;14.24;57.61
9277;BME280;4676;42.678;23.244;2022-09-21T11:29:42;94143.03;;;14.17;56.54
9277;BME280;4676;42.678;23.244;2022-09-21T11:32:24;94145.94;;;13.93;57.12
9277;BME280;4676;42.678;23.244;2022-09-21T11:35:17;94147.31;;;13.83;58.20
9277;BME280;4676;42.678;23.244;2022-09-21T11:40:28;94158.25;;;13.52;60.23
9277;BME280;4676;42.678;23.244;2022-09-21T11:43:07;94156.25;;;13.42;60.38
9277;BME280;4676;42.678;23.244;2022-09-21T11:45:48;94151.25;;;13.40;60.97
9277;BME280;4676;42.678;23.244;2022-09-21T11:48:22;94108.44;;;13.14;59.84
9277;BME280;4676;42.678;23.244;2022-09-21T11:51:02;94157.13;;;13.41;61.84
9277;BME280;4676;42.678;23.244;2022-09-21T11:53:44;94152.72;;;13.44;63.51
9277;BME280;4676;42.678;23.244;2022-09-21T11:56:30;94153.25;;;13.34;64.02
9277;BME280;4676;42.678;23.244;2022-09-21T11:59:08;94150.03;;;13.30;64.84
9277;BME280;4676;42.678;23.244;2022-09-21T12:01:51;94154.84;;;13.19;64.55
9277;BME280;4676;42.678;23.244;2022-09-21T12:04:36;94154.03;;;13.19;64.61
9277;BME280;4676;42.678;23.244;2022-09-21T12:09:59;94157.28;;;13.38;63.89
9277;BME280;4676;42.678;23.244;2022-09-21T12:12:33;94170.31;;;13.49;63.77
9277;BME280;4676;42.678;23.244;2022-09-21T12:15:08;94166.53;;;13.40;62.79
9277;BME280;4676;42.678;23.244;2022-09-21T12:17:46;94157.75;;;13.46;65.05
9277;BME280;4676;42.678;23.244;2022-09-21T12:20:23;94162.00;;;13.45;64.67
9277;BME280;4676;42.678;23.244;2022-09-21T12:22:56;94159.00;;;13.37;65.76
9277;BME280;4676;42.678;23.244;2022-09-21T12:25:27;94170.53;;;13.44;66.11
9277;BME280;4676;42.678;23.244;2022-09-21T12:28:01;94174.44;;;13.34;65.71
9277;BME280;4676;42.678;23.244;2022-09-21T12:30:30;94170.34;;;13.32;63.72
9277;BME280;4676;42.678;23.244;2022-09-21T12:33:02;94160.31;;;13.29;65.33
9277;BME280;4676;42.678;23.244;2022-09-21T12:35:35;94157.38;;;13.36;64.25
9277;BME280;4676;42.678;23.244;2022-09-21T12:38:09;94170.47;;;13.46;63.36
9277;BME280;4676;42.678;23.244;2022-09-21T12:40:37;94165.53;;;13.43;62.43
9277;BME280;4676;42.678;23.244;2022-09-21T12:43:16;94173.63;;;13.34;61.65
9277;BME280;4676;42.678;23.244;2022-09-21T12:45:47;94172.81;;;13.33;61.75
9277;BME280;4676;42.678;23.244;2022-09-21T12:48:25;94159.69;;;13.24;62.59
9277;BME280;4676;42.678;23.244;2022-09-21T12:50:54;94165.09;;;13.35;64.07
9277;BME280;4676;42.678;23.244;2022-09-21T12:53:25;94160.31;;;13.29;64.35
9277;BME280;4676;42.678;23.244;2022-09-21T12:55:57;94156.03;;;13.29;64.74
9277;BME280;4676;42.678;23.244;2022-09-21T12:58:40;94164.34;;;13.33;64.15
9277;BME280;4676;42.678;23.244;2022-09-21T13:01:20;94161.03;;;13.31;61.43
9277;BME280;4676;42.678;23.244;2022-09-21T13:04:00;94161.81;;;13.16;62.79
9277;BME280;4676;42.678;23.244;2022-09-21T13:06:51;94156.13;;;13.11;63.07
9277;BME280;4676;42.678;23.244;2022-09-21T13:09:24;94148.59;;;13.08;62.93
9277;BME280;4676;42.678;23.244;2022-09-21T13:11:53;94144.72;;;13.18;64.28
9277;BME280;4676;42.678;23.244;2022-09-21T13:14:22;94143.75;;;13.37;64.35
9277;BME280;4676;42.678;23.244;2022-09-21T13:16:55;94143.34;;;13.45;64.61
9277;BME280;4676;42.678;23.244;2022-09-21T13:19:26;94147.25;;;13.52;62.38
9277;BME280;4676;42.678;23.244;2022-09-21T13:22:12;94145.75;;;13.48;63.73
9277;BME280;4676;42.678;23.244;2022-09-21T13:24:43;94129.28;;;13.38;62.71
9277;BME280;4676;42.678;23.244;2022-09-21T13:27:10;94142.13;;;13.36;65.61
9277;BME280;4676;42.678;23.244;2022-09-21T13:29:38;94139.56;;;13.36;64.62
9277;BME280;4676;42.678;23.244;2022-09-21T13:32:21;94135.22;;;13.21;66.90
9277;BME280;4676;42.678;23.244;2022-09-21T13:34:50;94142.19;;;13.18;66.35
9277;BME280;4676;42.678;23.244;2022-09-21T13:37:35;94139.50;;;13.21;64.83
9277;BME280;4676;42.678;23.244;2022-09-21T13:43:21;94133.50;;;13.39;68.97
9277;BME280;4676;42.678;23.244;2022-09-21T13:45:52;94116.34;;;13.42;65.90
9277;BME280;4676;42.678;23.244;2022-09-21T13:48:21;94126.50;;;13.60;66.47
9277;BME280;4676;42.678;23.244;2022-09-21T13:50:55;94120.25;;;13.65;68.37
9277;BME280;4676;42.678;23.244;2022-09-21T13:53:27;94122.34;;;13.74;68.32
9277;BME280;4676;42.678;23.244;2022-09-21T13:55:59;94120.53;;;13.76;61.51
9277;BME280;4676;42.678;23.244;2022-09-21T13:58:30;94123.00;;;13.93;64.21